sensor_id;sensor_type;location;lat;lon;timestamp;P1;durP1;ratioP1;P2;durP2;ratioP2
16093;SDS011;8151;47.824;12.092;2024-02-26T00:01:20;0.53;;;0.53;;
16093;SDS011;8151;47.824;12.092;2024-02-26T00:03:49;0.60;;;0.60;;
16093;SDS011;8151;47.824;12.092;2024-02-26T00:06:17;1.60;;;0.90;;
16093;SDS011;8151;47.824;12.092;2024-02-26T00:08:46;3.67;;;0.67;;
16093;SDS011;8151;47.824;12.092;2024-02-26T00:11:16;0.50;;;0.50;;
16093;SDS011;8151;47.824;12.092;2024-02-26T00:13:44;1.07;;;1.00;;
16093;SDS011;8151;47.824;12.092;2024-02-26T00:16:12;0.90;;;0.63;;
16093;SDS011;8151;47.824;12.092;2024-02-26T00:18:41;0.57;;;0.57;;
16093;SDS011;8151;47.824;12.092;2024-02-26T00:21:12;0.60;;;0.60;;
16093;SDS011;8151;47.824;12.092;2024-02-26T00:23:40;1.00;;;1.00;;
16093;SDS011;8151;47.824;12.092;2024-02-26T00:26:09;0.90;;;0.70;;
16093;SDS011;8151;47.824;12.092;2024-02-26T00:28:39;0.70;;;0.60;;
16093;SDS011;8151;47.824;12.092;2024-02-26T00:31:08;0.63;;;0.63;;
16093;SDS011;8151;47.824;12.092;2024-02-26T00:33:36;1.40;;;0.73;;
16093;SDS011;8151;47.824;12.092;2024-02-26T00:36:04;1.07;;;0.73;;
16093;SDS011;8151;47.824;12.092;2024-02-26T00:38:33;0.90;;;0.80;;
16093;SDS011;8151;47.824;12.092;2024-02-26T00:41:01;1.77;;;0.93;;
16093;SDS011;8151;47.824;12.092;2024-02-26T00:43:30;2.40;;;1.00;;
16093;SDS011;8151;47.824;12.092;2024-02-26T00:46:00;1.93;;;1.20;;
16093;SDS011;8151;47.824;12.092;2024-02-26T00:48:29;2.37;;;1.50;;
16093;SDS011;8151;47.824;12.092;2024-02-26T00:50:57;3.80;;;2.43;;
16093;SDS011;8151;47.824;12.092;2024-02-26T00:53:26;3.10;;;2.37;;
16093;SDS011;8151;47.824;12.092;2024-02-26T00:55:56;3.83;;;2.40;;
16093;SDS011;8151;47.824;12.092;2024-02-26T00:58:26;5.80;;;3.00;;
16093;SDS011;8151;47.824;12.092;2024-02-26T01:00:54;3.53;;;2.60;;
16093;SDS011;8151;47.824;12.092;2024-02-26T01:03:24;2.73;;;2.50;;
16093;SDS011;8151;47.824;12.092;2024-02-26T01:05:53;4.00;;;2.90;;
16093;SDS011;8151;47.824;12.092;2024-02-26T01:08:25;4.63;;;2.70;;
16093;SDS011;8151;47.824;12.092;2024-02-26T01:10:53;10.63;;;2.93;;
16093;SDS011;8151;47.824;12.092;2024-02-26T01:13:22;4.80;;;2.87;;
16093;SDS011;8151;47.824;12.092;2024-02-26T01:15:50;5.17;;;3.20;;
16093;SDS011;8151;47.824;12.092;2024-02-26T01:18:18;3.50;;;3.00;;
16093;SDS011;8151;47.824;12.092;2024-02-26T01:20:48;6.20;;;3.17;;
16093;SDS011;8151;47.824;12.092;2024-02-26T01:23:17;4.73;;;3.20;;
16093;SDS011;8151;47.824;12.092;2024-02-26T01:25:45;3.67;;;2.60;;
16093;SDS011;8151;47.824;12.092;2024-02-26T01:28:14;3.50;;;2.13;;
16093;SDS011;8151;47.824;12.092;2024-02-26T01:30:42;4.50;;;1.93;;
16093;SDS011;8151;47.824;12.092;2024-02-26T01:33:11;3.10;;;2.50;;
16093;SDS011;8151;47.824;12.092;2024-02-26T01:35:40;2.07;;;1.87;;
16093;SDS011;8151;47.824;12.092;2024-02-26T01:38:09;3.20;;;2.40;;
16093;SDS011;8151;47.824;12.092;2024-02-26T01:40:38;3.53;;;2.60;;
16093;SDS011;8151;47.824;12.092;2024-02-26T01:43:06;4.60;;;3.00;;
16093;SDS011;8151;47.824;12.092;2024-02-26T01:45:35;3.90;;;3.17;;
16093;SDS011;8151;47.824;12.092;2024-02-26T01:48:03;4.53;;;2.70;;
16093;SDS011;8151;47.824;12.092;2024-02-26T01:50:32;7.17;;;3.10;;
16093;SDS011;8151;47.824;12.092;2024-02-26T01:53:02;3.33;;;3.03;;
16093;SDS011;8151;47.824;12.092;2024-02-26T01:55:32;4.60;;;3.03;;
16093;SDS011;8151;47.824;12.092;2024-02-26T01:58:01;3.97;;;2.80;;
16093;SDS011;8151;47.824;12.092;2024-02-26T02:00:30;3.27;;;2.97;;
16093;SDS011;8151;47.824;12.092;2024-02-26T02:02:59;5.30;;;3.20;;
16093;SDS011;8151;47.824;12.092;2024-02-26T02:05:30;4.33;;;3.20;;
16093;SDS011;8151;47.824;12.092;2024-02-26T02:07:59;4.63;;;3.17;;
16093;SDS011;8151;47.824;12.092;2024-02-26T02:10:31;3.53;;;2.40;;
16093;SDS011;8151;47.824;12.092;2024-02-26T02:12:59;5.10;;;3.00;;
16093;SDS011;8151;47.824;12.092;2024-02-26T02:15:28;5.03;;;3.10;;
16093;SDS011;8151;47.824;12.092;2024-02-26T02:17:56;4.83;;;3.20;;
16093;SDS011;8151;47.824;12.092;2024-02-26T02:20:27;6.30;;;3.20;;
16093;SDS011;8151;47.824;12.092;2024-02-26T02:23:00;6.50;;;3.00;;
16093;SDS011;8151;47.824;12.092;2024-02-26T02:25:29;4.20;;;3.23;;
16093;SDS011;8151;47.824;12.092;2024-02-26T02:27:57;4.63;;;3.27;;
16093;SDS011;8151;47.824;12.092;2024-02-26T02:30:26;5.77;;;3.17;;
16093;SDS011;8151;47.824;12.092;2024-02-26T02:32:57;4.30;;;3.03;;
16093;SDS011;8151;47.824;12.092;2024-02-26T02:35:28;3.43;;;2.73;;
16093;SDS011;8151;47.824;12.092;2024-02-26T02:37:56;3.70;;;2.70;;
16093;SDS011;8151;47.824;12.092;2024-02-26T02:40:25;5.53;;;3.40;;
16093;SDS011;8151;47.824;12.092;2024-02-26T02:42:54;3.50;;;2.73;;
16093;SDS011;8151;47.824;12.092;2024-02-26T02:45:22;3.50;;;2.57;;
16093;SDS011;8151;47.824;12.092;2024-02-26T02:47:51;4.43;;;2.80;;
16093;SDS011;8151;47.824;12.092;2024-02-26T02:50:20;7.63;;;3.10;;
16093;SDS011;8151;47.824;12.092;2024-02-26T02:52:49;3.10;;;2.60;;
16093;SDS011;8151;47.824;12.092;2024-02-26T02:55:18;2.93;;;2.37;;
16093;SDS011;8151;47.824;12.092;2024-02-26T02:57:46;6.27;;;2.63;;
16093;SDS011;8151;47.824;12.092;2024-02-26T03:00:15;2.90;;;2.60;;
16093;SDS011;8151;47.824;12.092;2024-02-26T03:02:44;4.77;;;2.97;;
16093;SDS011;8151;47.824;12.092;2024-02-26T03:05:13;3.20;;;2.63;;
16093;SDS011;8151;47.824;12.092;2024-02-26T03:07:41;5.30;;;2.60;;
16093;SDS011;8151;47.824;12.092;2024-02-26T03:10:11;2.93;;;2.30;;
16093;SDS011;8151;47.824;12.092;2024-02-26T03:12:40;6.40;;;2.63;;
16093;SDS011;8151;47.824;12.092;2024-02-26T03:15:09;4.27;;;2.70;;
16093;SDS011;8151;47.824;12.092;2024-02-26T03:17:38;3.33;;;2.93;;
16093;SDS011;8151;47.824;12.092;2024-02-26T03:20:07;2.73;;;2.40;;
16093;SDS011;8151;47.824;12.092;2024-02-26T03:22:38;3.33;;;2.70;;
16093;SDS011;8151;47.824;12.092;2024-02-26T03:25:07;2.67;;;2.47;;
16093;SDS011;8151;47.824;12.092;2024-02-26T03:27:37;3.33;;;2.20;;
16093;SDS011;8151;47.824;12.092;2024-02-26T03:30:06;4.90;;;2.40;;
16093;SDS011;8151;47.824;12.092;2024-02-26T03:32:35;4.40;;;2.57;;
16093;SDS011;8151;47.824;12.092;2024-02-26T03:35:04;2.77;;;2.53;;
16093;SDS011;8151;47.824;12.092;2024-02-26T03:37:34;5.23;;;2.87;;
16093;SDS011;8151;47.824;12.092;2024-02-26T03:40:03;3.53;;;2.43;;
16093;SDS011;8151;47.824;12.092;2024-02-26T03:42:32;3.47;;;2.50;;
16093;SDS011;8151;47.824;12.092;2024-02-26T03:45:01;4.57;;;2.53;;
16093;SDS011;8151;47.824;12.092;2024-02-26T03:47:30;3.97;;;2.43;;
16093;SDS011;8151;47.824;12.092;2024-02-26T03:49:59;3.43;;;2.33;;
16093;SDS011;8151;47.824;12.092;2024-02-26T03:52:27;3.57;;;2.53;;
16093;SDS011;8151;47.824;12.092;2024-02-26T03:54:56;3.07;;;2.50;;
16093;SDS011;8151;47.824;12.092;2024-02-26T03:57:24;4.67;;;2.57;;
16093;SDS011;8151;47.824;12.092;2024-02-26T03:59:53;3.33;;;2.80;;
16093;SDS011;8151;47.824;12.092;2024-02-26T04:02:22;5.73;;;3.37;;
16093;SDS011;8151;47.824;12.092;2024-02-26T04:04:52;2.60;;;2.17;;
16093;SDS011;8151;47.824;12.092;2024-02-26T04:07:20;3.77;;;2.37;;
16093;SDS011;8151;47.824;12.092;2024-02-26T04:09:49;4.53;;;2.30;;
16093;SDS011;8151;47.824;12.092;2024-02-26T04:12:17;5.13;;;2.63;;
16093;SDS011;8151;47.824;12.092;2024-02-26T04:14:46;4.50;;;2.20;;
16093;SDS011;8151;47.824;12.092;2024-02-26T04:17:14;3.23;;;2.87;;
16093;SDS011;8151;47.824;12.092;2024-02-26T04:19:44;4.80;;;3.83;;
16093;SDS011;8151;47.824;12.092;2024-02-26T04:22:12;3.17;;;2.70;;
16093;SDS011;8151;47.824;12.092;2024-02-26T04:24:41;3.37;;;2.90;;
16093;SDS011;8151;47.824;12.092;2024-02-26T04:27:09;4.10;;;2.70;;
16093;SDS011;8151;47.824;12.092;2024-02-26T04:29:38;2.40;;;2.20;;
16093;SDS011;8151;47.824;12.092;2024-02-26T04:32:06;4.77;;;2.77;;
16093;SDS011;8151;47.824;12.092;2024-02-26T04:34:35;4.10;;;2.50;;
16093;SDS011;8151;47.824;12.092;2024-02-26T04:37:05;3.87;;;2.50;;
16093;SDS011;8151;47.824;12.092;2024-02-26T04:39:34;2.97;;;2.67;;
16093;SDS011;8151;47.824;12.092;2024-02-26T04:42:02;6.50;;;3.50;;
16093;SDS011;8151;47.824;12.092;2024-02-26T04:44:31;3.90;;;2.97;;
16093;SDS011;8151;47.824;12.092;2024-02-26T04:47:00;5.33;;;3.60;;
16093;SDS011;8151;47.824;12.092;2024-02-26T04:49:29;5.33;;;4.00;;
16093;SDS011;8151;47.824;12.092;2024-02-26T04:51:58;6.47;;;4.40;;
16093;SDS011;8151;47.824;12.092;2024-02-26T04:54:26;3.10;;;2.80;;
16093;SDS011;8151;47.824;12.092;2024-02-26T04:56:55;6.70;;;4.10;;
16093;SDS011;8151;47.824;12.092;2024-02-26T04:59:23;4.87;;;3.77;;
16093;SDS011;8151;47.824;12.092;2024-02-26T05:01:52;2.97;;;2.60;;
16093;SDS011;8151;47.824;12.092;2024-02-26T05:04:20;4.83;;;2.67;;
16093;SDS011;8151;47.824;12.092;2024-02-26T05:06:49;7.87;;;2.80;;
16093;SDS011;8151;47.824;12.092;2024-02-26T05:09:18;4.03;;;2.90;;
16093;SDS011;8151;47.824;12.092;2024-02-26T05:11:48;3.67;;;3.23;;
16093;SDS011;8151;47.824;12.092;2024-02-26T05:14:16;4.83;;;3.67;;
16093;SDS011;8151;47.824;12.092;2024-02-26T05:16:45;3.90;;;3.10;;
16093;SDS011;8151;47.824;12.092;2024-02-26T05:19:13;5.90;;;3.47;;
16093;SDS011;8151;47.824;12.092;2024-02-26T05:21:42;4.50;;;3.63;;
16093;SDS011;8151;47.824;12.092;2024-02-26T05:24:11;8.40;;;5.37;;
16093;SDS011;8151;47.824;12.092;2024-02-26T05:26:42;6.00;;;3.83;;
16093;SDS011;8151;47.824;12.092;2024-02-26T05:29:12;6.60;;;4.93;;
16093;SDS011;8151;47.824;12.092;2024-02-26T05:31:41;6.70;;;4.40;;
16093;SDS011;8151;47.824;12.092;2024-02-26T05:34:10;4.47;;;3.70;;
16093;SDS011;8151;47.824;12.092;2024-02-26T05:36:39;8.70;;;4.00;;
16093;SDS011;8151;47.824;12.092;2024-02-26T05:39:07;5.23;;;3.60;;
16093;SDS011;8151;47.824;12.092;2024-02-26T05:41:43;5.87;;;3.97;;
16093;SDS011;8151;47.824;12.092;2024-02-26T05:44:13;4.93;;;3.73;;
16093;SDS011;8151;47.824;12.092;2024-02-26T05:46:42;6.13;;;4.43;;
16093;SDS011;8151;47.824;12.092;2024-02-26T05:49:11;8.00;;;4.50;;
16093;SDS011;8151;47.824;12.092;2024-02-26T05:51:39;4.13;;;3.50;;
16093;SDS011;8151;47.824;12.092;2024-02-26T05:54:08;5.97;;;3.20;;
16093;SDS011;8151;47.824;12.092;2024-02-26T05:56:37;7.17;;;4.47;;
16093;SDS011;8151;47.824;12.092;2024-02-26T05:59:07;9.57;;;3.60;;
16093;SDS011;8151;47.824;12.092;2024-02-26T06:01:37;8.67;;;4.83;;
16093;SDS011;8151;47.824;12.092;2024-02-26T06:04:05;7.47;;;4.23;;
16093;SDS011;8151;47.824;12.092;2024-02-26T06:06:33;5.40;;;3.50;;
16093;SDS011;8151;47.824;12.092;2024-02-26T06:09:04;6.03;;;4.07;;
16093;SDS011;8151;47.824;12.092;2024-02-26T06:11:33;8.03;;;4.47;;
16093;SDS011;8151;47.824;12.092;2024-02-26T06:14:01;5.87;;;4.20;;
16093;SDS011;8151;47.824;12.092;2024-02-26T06:16:30;4.63;;;3.87;;
16093;SDS011;8151;47.824;12.092;2024-02-26T06:19:01;13.40;;;6.93;;
16093;SDS011;8151;47.824;12.092;2024-02-26T06:21:30;5.80;;;4.60;;
16093;SDS011;8151;47.824;12.092;2024-02-26T06:24:02;5.20;;;4.43;;
16093;SDS011;8151;47.824;12.092;2024-02-26T06:26:30;7.83;;;4.00;;
16093;SDS011;8151;47.824;12.092;2024-02-26T06:29:00;5.87;;;4.33;;
16093;SDS011;8151;47.824;12.092;2024-02-26T06:31:28;7.27;;;5.23;;
16093;SDS011;8151;47.824;12.092;2024-02-26T06:33:57;6.57;;;5.30;;
16093;SDS011;8151;47.824;12.092;2024-02-26T06:36:27;6.43;;;4.80;;
16093;SDS011;8151;47.824;12.092;2024-02-26T06:38:55;7.03;;;4.73;;
16093;SDS011;8151;47.824;12.092;2024-02-26T06:41:24;7.43;;;4.40;;
16093;SDS011;8151;47.824;12.092;2024-02-26T06:43:54;6.73;;;4.10;;
16093;SDS011;8151;47.824;12.092;2024-02-26T06:46:23;5.73;;;3.63;;
16093;SDS011;8151;47.824;12.092;2024-02-26T06:48:52;8.63;;;5.50;;
16093;SDS011;8151;47.824;12.092;2024-02-26T06:51:22;7.33;;;4.03;;
16093;SDS011;8151;47.824;12.092;2024-02-26T06:53:52;12.53;;;5.67;;
16093;SDS011;8151;47.824;12.092;2024-02-26T06:56:23;9.70;;;6.40;;
16093;SDS011;8151;47.824;12.092;2024-02-26T06:58:51;18.47;;;7.50;;
16093;SDS011;8151;47.824;12.092;2024-02-26T07:01:20;11.03;;;7.93;;
16093;SDS011;8151;47.824;12.092;2024-02-26T07:03:48;8.87;;;5.60;;
16093;SDS011;8151;47.824;12.092;2024-02-26T07:06:17;7.10;;;5.10;;
16093;SDS011;8151;47.824;12.092;2024-02-26T07:08:45;7.10;;;4.33;;
16093;SDS011;8151;47.824;12.092;2024-02-26T07:11:15;27.67;;;5.40;;
16093;SDS011;8151;47.824;12.092;2024-02-26T07:13:45;7.97;;;5.03;;
16093;SDS011;8151;47.824;12.092;2024-02-26T07:16:16;11.27;;;4.93;;
16093;SDS011;8151;47.824;12.092;2024-02-26T07:18:44;12.40;;;5.03;;
16093;SDS011;8151;47.824;12.092;2024-02-26T07:21:13;11.33;;;6.20;;
16093;SDS011;8151;47.824;12.092;2024-02-26T07:23:41;8.67;;;5.57;;
16093;SDS011;8151;47.824;12.092;2024-02-26T07:26:10;9.33;;;5.87;;
16093;SDS011;8151;47.824;12.092;2024-02-26T07:28:41;13.43;;;6.37;;
16093;SDS011;8151;47.824;12.092;2024-02-26T07:31:09;13.97;;;5.60;;
16093;SDS011;8151;47.824;12.092;2024-02-26T07:33:37;10.17;;;6.33;;
16093;SDS011;8151;47.824;12.092;2024-02-26T07:36:06;11.83;;;6.53;;
16093;SDS011;8151;47.824;12.092;2024-02-26T07:38:35;10.80;;;6.20;;
16093;SDS011;8151;47.824;12.092;2024-02-26T07:41:10;11.57;;;6.30;;
16093;SDS011;8151;47.824;12.092;2024-02-26T07:43:40;10.10;;;5.47;;
16093;SDS011;8151;47.824;12.092;2024-02-26T07:46:10;10.80;;;5.80;;
16093;SDS011;8151;47.824;12.092;2024-02-26T07:48:39;11.30;;;6.33;;
16093;SDS011;8151;47.824;12.092;2024-02-26T07:51:09;11.83;;;5.73;;
16093;SDS011;8151;47.824;12.092;2024-02-26T07:53:41;12.97;;;6.27;;
16093;SDS011;8151;47.824;12.092;2024-02-26T07:56:10;12.20;;;6.07;;
16093;SDS011;8151;47.824;12.092;2024-02-26T07:58:38;16.27;;;6.60;;
16093;SDS011;8151;47.824;12.092;2024-02-26T08:01:08;11.20;;;6.10;;
16093;SDS011;8151;47.824;12.092;2024-02-26T08:03:37;9.70;;;6.10;;
16093;SDS011;8151;47.824;12.092;2024-02-26T08:06:05;11.97;;;6.13;;
16093;SDS011;8151;47.824;12.092;2024-02-26T08:08:36;9.67;;;5.07;;
16093;SDS011;8151;47.824;12.092;2024-02-26T08:11:04;14.37;;;5.80;;
16093;SDS011;8151;47.824;12.092;2024-02-26T08:13:33;9.83;;;5.27;;
16093;SDS011;8151;47.824;12.092;2024-02-26T08:16:01;10.33;;;6.10;;
16093;SDS011;8151;47.824;12.092;2024-02-26T08:18:31;7.47;;;5.27;;
16093;SDS011;8151;47.824;12.092;2024-02-26T08:21:00;17.77;;;6.30;;
16093;SDS011;8151;47.824;12.092;2024-02-26T08:23:29;10.73;;;6.30;;
16093;SDS011;8151;47.824;12.092;2024-02-26T08:25:58;13.03;;;6.57;;
16093;SDS011;8151;47.824;12.092;2024-02-26T08:28:27;14.50;;;6.30;;
16093;SDS011;8151;47.824;12.092;2024-02-26T08:30:55;10.27;;;6.37;;
16093;SDS011;8151;47.824;12.092;2024-02-26T08:33:23;8.33;;;5.70;;
16093;SDS011;8151;47.824;12.092;2024-02-26T08:35:53;8.90;;;5.90;;
16093;SDS011;8151;47.824;12.092;2024-02-26T08:38:22;10.33;;;4.63;;
16093;SDS011;8151;47.824;12.092;2024-02-26T08:40:50;6.77;;;5.00;;
16093;SDS011;8151;47.824;12.092;2024-02-26T08:43:19;6.67;;;4.57;;
16093;SDS011;8151;47.824;12.092;2024-02-26T08:45:48;6.23;;;4.50;;
16093;SDS011;8151;47.824;12.092;2024-02-26T08:48:16;7.47;;;4.90;;
16093;SDS011;8151;47.824;12.092;2024-02-26T08:50:44;9.23;;;5.63;;
16093;SDS011;8151;47.824;12.092;2024-02-26T08:53:14;7.03;;;4.40;;
16093;SDS011;8151;47.824;12.092;2024-02-26T08:55:53;11.70;;;4.80;;
16093;SDS011;8151;47.824;12.092;2024-02-26T08:58:22;5.67;;;4.23;;
16093;SDS011;8151;47.824;12.092;2024-02-26T09:00:50;7.97;;;4.80;;
16093;SDS011;8151;47.824;12.092;2024-02-26T09:03:18;8.17;;;5.47;;
16093;SDS011;8151;47.824;12.092;2024-02-26T09:05:47;7.77;;;5.30;;
16093;SDS011;8151;47.824;12.092;2024-02-26T09:08:17;8.33;;;5.37;;
16093;SDS011;8151;47.824;12.092;2024-02-26T09:10:45;11.23;;;5.83;;
16093;SDS011;8151;47.824;12.092;2024-02-26T09:13:14;10.17;;;6.50;;
16093;SDS011;8151;47.824;12.092;2024-02-26T09:15:42;9.40;;;6.47;;
16093;SDS011;8151;47.824;12.092;2024-02-26T09:18:11;6.73;;;5.23;;
16093;SDS011;8151;47.824;12.092;2024-02-26T09:20:40;13.97;;;7.40;;
16093;SDS011;8151;47.824;12.092;2024-02-26T09:23:09;12.13;;;7.47;;
16093;SDS011;8151;47.824;12.092;2024-02-26T09:25:39;15.67;;;7.70;;
16093;SDS011;8151;47.824;12.092;2024-02-26T09:28:07;8.47;;;4.67;;
16093;SDS011;8151;47.824;12.092;2024-02-26T09:30:36;7.10;;;4.60;;
16093;SDS011;8151;47.824;12.092;2024-02-26T09:33:05;6.73;;;5.03;;
16093;SDS011;8151;47.824;12.092;2024-02-26T09:35:34;8.53;;;5.50;;
16093;SDS011;8151;47.824;12.092;2024-02-26T09:38:02;8.43;;;5.50;;
16093;SDS011;8151;47.824;12.092;2024-02-26T09:40:33;6.33;;;4.80;;
16093;SDS011;8151;47.824;12.092;2024-02-26T09:43:03;7.00;;;4.63;;
16093;SDS011;8151;47.824;12.092;2024-02-26T09:45:34;12.40;;;5.10;;
16093;SDS011;8151;47.824;12.092;2024-02-26T09:48:03;9.03;;;4.60;;
16093;SDS011;8151;47.824;12.092;2024-02-26T09:50:35;7.30;;;4.50;;
16093;SDS011;8151;47.824;12.092;2024-02-26T09:53:04;9.27;;;4.40;;
16093;SDS011;8151;47.824;12.092;2024-02-26T09:55:37;6.67;;;3.90;;
16093;SDS011;8151;47.824;12.092;2024-02-26T09:58:07;4.60;;;3.53;;
16093;SDS011;8151;47.824;12.092;2024-02-26T10:00:36;15.97;;;5.27;;
16093;SDS011;8151;47.824;12.092;2024-02-26T10:03:06;5.83;;;3.63;;
16093;SDS011;8151;47.824;12.092;2024-02-26T10:05:42;7.40;;;4.33;;
16093;SDS011;8151;47.824;12.092;2024-02-26T10:08:12;6.90;;;3.13;;
16093;SDS011;8151;47.824;12.092;2024-02-26T10:10:42;5.83;;;3.73;;
16093;SDS011;8151;47.824;12.092;2024-02-26T10:13:12;9.40;;;4.20;;
16093;SDS011;8151;47.824;12.092;2024-02-26T10:15:40;17.13;;;6.70;;
16093;SDS011;8151;47.824;12.092;2024-02-26T10:18:08;10.43;;;4.73;;
16093;SDS011;8151;47.824;12.092;2024-02-26T10:20:37;7.17;;;3.90;;
16093;SDS011;8151;47.824;12.092;2024-02-26T10:23:06;8.70;;;4.77;;
16093;SDS011;8151;47.824;12.092;2024-02-26T10:25:34;15.80;;;8.60;;
16093;SDS011;8151;47.824;12.092;2024-02-26T10:28:03;9.23;;;4.60;;
16093;SDS011;8151;47.824;12.092;2024-02-26T10:30:36;11.23;;;4.87;;
16093;SDS011;8151;47.824;12.092;2024-02-26T10:33:05;9.50;;;4.93;;
16093;SDS011;8151;47.824;12.092;2024-02-26T10:35:35;6.00;;;3.80;;
16093;SDS011;8151;47.824;12.092;2024-02-26T10:38:07;16.73;;;9.10;;
16093;SDS011;8151;47.824;12.092;2024-02-26T10:40:35;19.27;;;12.90;;
16093;SDS011;8151;47.824;12.092;2024-02-26T10:43:04;7.13;;;3.60;;
16093;SDS011;8151;47.824;12.092;2024-02-26T10:45:34;6.70;;;3.23;;
16093;SDS011;8151;47.824;12.092;2024-02-26T10:48:04;3.63;;;2.60;;
16093;SDS011;8151;47.824;12.092;2024-02-26T10:50:38;5.90;;;3.33;;
16093;SDS011;8151;47.824;12.092;2024-02-26T10:53:07;4.63;;;3.10;;
16093;SDS011;8151;47.824;12.092;2024-02-26T10:55:45;3.20;;;2.37;;
16093;SDS011;8151;47.824;12.092;2024-02-26T10:58:16;2.43;;;2.00;;
16093;SDS011;8151;47.824;12.092;2024-02-26T11:00:47;2.53;;;2.10;;
16093;SDS011;8151;47.824;12.092;2024-02-26T11:03:18;3.00;;;2.57;;
16093;SDS011;8151;47.824;12.092;2024-02-26T11:05:48;5.93;;;2.30;;
16093;SDS011;8151;47.824;12.092;2024-02-26T11:08:18;4.50;;;2.33;;
16093;SDS011;8151;47.824;12.092;2024-02-26T11:10:48;4.23;;;2.50;;
16093;SDS011;8151;47.824;12.092;2024-02-26T11:13:19;4.23;;;2.50;;
16093;SDS011;8151;47.824;12.092;2024-02-26T11:15:50;3.73;;;2.03;;
16093;SDS011;8151;47.824;12.092;2024-02-26T11:18:21;2.80;;;2.20;;
16093;SDS011;8151;47.824;12.092;2024-02-26T11:20:51;6.90;;;2.93;;
16093;SDS011;8151;47.824;12.092;2024-02-26T11:23:24;2.00;;;1.77;;
16093;SDS011;8151;47.824;12.092;2024-02-26T11:25:53;8.10;;;3.97;;
16093;SDS011;8151;47.824;12.092;2024-02-26T11:28:24;6.60;;;3.83;;
16093;SDS011;8151;47.824;12.092;2024-02-26T11:30:57;7.07;;;3.37;;
16093;SDS011;8151;47.824;12.092;2024-02-26T11:33:28;4.27;;;2.80;;
16093;SDS011;8151;47.824;12.092;2024-02-26T11:35:57;2.53;;;2.33;;
16093;SDS011;8151;47.824;12.092;2024-02-26T11:38:26;6.13;;;2.73;;
16093;SDS011;8151;47.824;12.092;2024-02-26T11:40:55;2.57;;;2.37;;
16093;SDS011;8151;47.824;12.092;2024-02-26T11:43:24;3.30;;;2.37;;
16093;SDS011;8151;47.824;12.092;2024-02-26T11:46:28;3.67;;;2.20;;
16093;SDS011;8151;47.824;12.092;2024-02-26T11:48:58;3.13;;;2.30;;
16093;SDS011;8151;47.824;12.092;2024-02-26T11:51:28;6.73;;;2.13;;
16093;SDS011;8151;47.824;12.092;2024-02-26T11:54:01;3.77;;;2.07;;
16093;SDS011;8151;47.824;12.092;2024-02-26T11:56:30;3.87;;;2.30;;
16093;SDS011;8151;47.824;12.092;2024-02-26T11:59:03;3.37;;;2.40;;
16093;SDS011;8151;47.824;12.092;2024-02-26T12:04:21;4.27;;;2.63;;
16093;SDS011;8151;47.824;12.092;2024-02-26T12:06:54;3.53;;;2.67;;
16093;SDS011;8151;47.824;12.092;2024-02-26T12:09:31;6.30;;;2.70;;
16093;SDS011;8151;47.824;12.092;2024-02-26T12:12:01;3.80;;;2.03;;
16093;SDS011;8151;47.824;12.092;2024-02-26T12:14:32;6.27;;;2.40;;
16093;SDS011;8151;47.824;12.092;2024-02-26T12:17:03;2.87;;;2.47;;
16093;SDS011;8151;47.824;12.092;2024-02-26T12:19:34;3.30;;;2.67;;
16093;SDS011;8151;47.824;12.092;2024-02-26T12:22:07;4.60;;;2.23;;
16093;SDS011;8151;47.824;12.092;2024-02-26T12:24:36;3.07;;;2.30;;
16093;SDS011;8151;47.824;12.092;2024-02-26T12:27:05;3.23;;;2.30;;
16093;SDS011;8151;47.824;12.092;2024-02-26T12:29:33;3.53;;;2.10;;
16093;SDS011;8151;47.824;12.092;2024-02-26T12:32:04;4.37;;;2.57;;
16093;SDS011;8151;47.824;12.092;2024-02-26T12:34:34;2.77;;;2.30;;
16093;SDS011;8151;47.824;12.092;2024-02-26T12:37:03;5.13;;;2.40;;
16093;SDS011;8151;47.824;12.092;2024-02-26T12:39:34;2.27;;;2.00;;
16093;SDS011;8151;47.824;12.092;2024-02-26T12:42:02;3.80;;;2.90;;
16093;SDS011;8151;47.824;12.092;2024-02-26T12:44:31;5.20;;;3.20;;
16093;SDS011;8151;47.824;12.092;2024-02-26T12:47:00;3.20;;;2.77;;
16093;SDS011;8151;47.824;12.092;2024-02-26T12:49:31;2.90;;;2.60;;
16093;SDS011;8151;47.824;12.092;2024-02-26T12:52:00;6.93;;;3.17;;
16093;SDS011;8151;47.824;12.092;2024-02-26T12:54:30;5.90;;;3.03;;
16093;SDS011;8151;47.824;12.092;2024-02-26T12:57:00;6.93;;;2.60;;
16093;SDS011;8151;47.824;12.092;2024-02-26T12:59:31;13.13;;;8.93;;
16093;SDS011;8151;47.824;12.092;2024-02-26T13:02:00;8.40;;;5.07;;
16093;SDS011;8151;47.824;12.092;2024-02-26T13:04:35;17.17;;;13.47;;
16093;SDS011;8151;47.824;12.092;2024-02-26T13:07:04;5.87;;;3.27;;
16093;SDS011;8151;47.824;12.092;2024-02-26T13:09:33;5.77;;;3.00;;
16093;SDS011;8151;47.824;12.092;2024-02-26T13:12:03;4.50;;;2.43;;
16093;SDS011;8151;47.824;12.092;2024-02-26T13:14:32;3.47;;;2.63;;
16093;SDS011;8151;47.824;12.092;2024-02-26T13:17:01;2.37;;;2.10;;
16093;SDS011;8151;47.824;12.092;2024-02-26T13:19:31;5.53;;;1.67;;
16093;SDS011;8151;47.824;12.092;2024-02-26T13:22:04;2.50;;;0.70;;
16093;SDS011;8151;47.824;12.092;2024-02-26T13:24:34;4.90;;;1.47;;
16093;SDS011;8151;47.824;12.092;2024-02-26T13:27:02;1.30;;;0.90;;
16093;SDS011;8151;47.824;12.092;2024-02-26T13:29:33;0.97;;;0.70;;
16093;SDS011;8151;47.824;12.092;2024-02-26T13:32:02;3.37;;;0.60;;
16093;SDS011;8151;47.824;12.092;2024-02-26T13:34:33;1.10;;;1.00;;
16093;SDS011;8151;47.824;12.092;2024-02-26T13:37:02;1.90;;;1.30;;
16093;SDS011;8151;47.824;12.092;2024-02-26T13:39:33;7.43;;;3.63;;
16093;SDS011;8151;47.824;12.092;2024-02-26T13:42:07;1.23;;;0.93;;
16093;SDS011;8151;47.824;12.092;2024-02-26T13:44:38;5.63;;;0.73;;
16093;SDS011;8151;47.824;12.092;2024-02-26T13:47:08;0.60;;;0.60;;
16093;SDS011;8151;47.824;12.092;2024-02-26T13:49:36;0.80;;;0.70;;
16093;SDS011;8151;47.824;12.092;2024-02-26T13:52:05;1.23;;;0.77;;
16093;SDS011;8151;47.824;12.092;2024-02-26T13:54:35;2.30;;;1.00;;
16093;SDS011;8151;47.824;12.092;2024-02-26T13:57:05;1.60;;;1.00;;
16093;SDS011;8151;47.824;12.092;2024-02-26T13:59:34;0.83;;;0.70;;
16093;SDS011;8151;47.824;12.092;2024-02-26T14:02:02;1.03;;;0.70;;
16093;SDS011;8151;47.824;12.092;2024-02-26T14:04:32;1.00;;;0.33;;
16093;SDS011;8151;47.824;12.092;2024-02-26T14:07:01;0.30;;;0.30;;
16093;SDS011;8151;47.824;12.092;2024-02-26T14:09:30;2.10;;;0.50;;
16093;SDS011;8151;47.824;12.092;2024-02-26T14:12:13;1.03;;;0.67;;
16093;SDS011;8151;47.824;12.092;2024-02-26T14:14:42;0.73;;;0.53;;
16093;SDS011;8151;47.824;12.092;2024-02-26T14:17:12;1.80;;;0.50;;
16093;SDS011;8151;47.824;12.092;2024-02-26T14:19:41;0.20;;;0.20;;
16093;SDS011;8151;47.824;12.092;2024-02-26T14:22:11;3.47;;;0.67;;
16093;SDS011;8151;47.824;12.092;2024-02-26T14:24:40;0.70;;;0.43;;
16093;SDS011;8151;47.824;12.092;2024-02-26T14:27:09;2.30;;;0.40;;
16093;SDS011;8151;47.824;12.092;2024-02-26T14:29:40;0.50;;;0.40;;
16093;SDS011;8151;47.824;12.092;2024-02-26T14:32:10;2.00;;;0.60;;
16093;SDS011;8151;47.824;12.092;2024-02-26T14:34:38;1.30;;;1.20;;
16093;SDS011;8151;47.824;12.092;2024-02-26T14:37:07;2.60;;;0.73;;
16093;SDS011;8151;47.824;12.092;2024-02-26T14:39:37;0.60;;;0.60;;
16093;SDS011;8151;47.824;12.092;2024-02-26T14:42:06;0.97;;;0.60;;
16093;SDS011;8151;47.824;12.092;2024-02-26T14:44:35;0.63;;;0.63;;
16093;SDS011;8151;47.824;12.092;2024-02-26T14:47:05;1.50;;;0.80;;
16093;SDS011;8151;47.824;12.092;2024-02-26T14:49:34;2.67;;;1.00;;
16093;SDS011;8151;47.824;12.092;2024-02-26T14:52:02;2.73;;;1.03;;
16093;SDS011;8151;47.824;12.092;2024-02-26T14:54:31;2.73;;;1.20;;
16093;SDS011;8151;47.824;12.092;2024-02-26T14:57:04;1.10;;;1.00;;
16093;SDS011;8151;47.824;12.092;2024-02-26T14:59:33;2.07;;;0.80;;
16093;SDS011;8151;47.824;12.092;2024-02-26T15:02:03;2.87;;;0.97;;